createdAt,value
2018-12-17T00:00:56.992Z,96863.58
2018-12-17T00:03:38.803Z,96859.22
2018-12-17T00:06:14.534Z,96859.79
2018-12-17T00:08:47.815Z,96864.02
2018-12-17T00:11:23.548Z,96863.03
2018-12-17T00:14:04.750Z,96862.22
2018-12-17T00:16:44.451Z,96858.69
2018-12-17T00:19:17.014Z,96856.50
2018-12-17T00:21:58.448Z,96853.83
2018-12-17T00:24:40.183Z,96854.41
2018-12-17T00:27:22.077Z,96860.02
2018-12-17T00:29:55.333Z,96859.83
2018-12-17T00:32:30.916Z,96869.31
2018-12-17T00:35:12.409Z,96867.56
2018-12-17T00:37:54.344Z,96866.02
2018-12-17T00:40:26.805Z,96866.23
2018-12-17T00:43:08.576Z,96867.06
2018-12-17T00:45:49.771Z,96873.77
2018-12-17T00:48:31.915Z,96879.94
2018-12-17T00:51:14.762Z,96884.89
2018-12-17T00:53:54.088Z,96887.23
2018-12-17T00:56:24.859Z,96889.64
2018-12-17T00:58:58.098Z,96898.19
2018-12-17T01:01:31.372Z,96894.86
2018-12-17T01:04:13.400Z,96899.98
2018-12-17T01:06:55.396Z,96895.45
2018-12-17T01:09:28.655Z,96891.58
2018-12-17T01:12:09.809Z,96889.11
2018-12-17T01:14:55.744Z,96888.67
2018-12-17T01:17:37.759Z,96890.00
2018-12-17T01:20:13.175Z,96902.05
2018-12-17T01:22:54.347Z,96904.99
2018-12-17T01:25:36.289Z,96903.01
2018-12-17T01:28:22.148Z,96911.00
2018-12-17T01:30:53.287Z,96909.23
2018-12-17T01:33:26.407Z,96912.67
2018-12-17T01:36:08.152Z,96914.61
2018-12-17T01:38:50.070Z,96927.30
2018-12-17T01:41:23.107Z,96933.05
2018-12-17T01:47:04.528Z,96947.09
2018-12-17T01:49:46.408Z,96947.33
2018-12-17T01:52:28.387Z,96949.89
2018-12-17T01:55:03.103Z,96950.55
2018-12-17T01:57:44.502Z,96948.91
2018-12-17T02:00:17.574Z,96950.64
2018-12-17T02:02:48.782Z,96959.09
2018-12-17T02:05:30.756Z,96962.31
2018-12-17T02:08:12.560Z,96959.45
2018-12-17T02:10:44.999Z,96959.61
2018-12-17T02:13:26.070Z,96959.75
2018-12-17T02:16:07.245Z,96962.09
2018-12-17T02:18:44.842Z,96957.41
2018-12-17T02:21:26.656Z,96957.39
2018-12-17T02:24:13.399Z,96962.87
2018-12-17T02:26:55.352Z,96970.06
2018-12-17T02:29:28.484Z,96965.64
2018-12-17T02:32:09.612Z,96964.03
2018-12-17T02:34:42.803Z,96967.20
2018-12-17T02:37:24.565Z,96968.98
2018-12-17T02:39:57.732Z,96973.24
2018-12-17T02:42:39.061Z,96973.99
2018-12-17T02:45:20.915Z,96971.34
2018-12-17T02:48:02.131Z,96973.67
2018-12-17T02:50:35.148Z,96974.69
2018-12-17T02:53:17.293Z,96974.55
2018-12-17T02:55:59.199Z,96981.41
2018-12-17T02:58:44.149Z,96981.92
2018-12-17T03:01:24.203Z,96986.86
2018-12-17T03:03:57.277Z,96992.66
2018-12-17T03:06:39.099Z,96995.69
2018-12-17T03:09:12.404Z,96999.80
2018-12-17T03:11:47.825Z,97003.29
2018-12-17T03:14:22.876Z,97010.50
2018-12-17T03:16:55.527Z,97012.68
2018-12-17T03:19:31.183Z,97009.17
2018-12-17T03:22:06.058Z,97010.14
2018-12-17T03:24:47.460Z,97013.01
2018-12-17T03:27:29.402Z,97011.62
2018-12-17T03:30:02.547Z,97009.88
2018-12-17T03:32:44.608Z,97013.51
2018-12-17T03:35:26.543Z,97023.30
2018-12-17T03:38:08.215Z,97032.09
2018-12-17T03:40:41.453Z,97035.97
2018-12-17T03:43:23.403Z,97040.72
2018-12-17T03:46:05.168Z,97052.25
2018-12-17T03:48:46.941Z,97057.67
2018-12-17T03:51:28.683Z,97062.89
2018-12-17T03:54:10.706Z,97066.72
2018-12-17T03:56:45.350Z,97064.31
2018-12-17T03:59:18.107Z,97070.78
2018-12-17T04:02:00.072Z,97069.83
2018-12-17T04:04:35.578Z,97070.61
2018-12-17T04:07:17.088Z,97074.72
2018-12-17T04:09:50.558Z,97078.08
2018-12-17T04:12:32.273Z,97079.27
2018-12-17T04:15:14.212Z,97083.47
2018-12-17T04:17:56.235Z,97086.67
2018-12-17T04:20:29.287Z,97094.63
2018-12-17T04:23:11.157Z,97110.52
2018-12-17T04:25:46.401Z,97104.05
2018-12-17T04:28:34.093Z,97117.69
2018-12-17T04:31:15.671Z,97118.72
2018-12-17T04:33:51.556Z,97127.27
2018-12-17T04:36:32.696Z,97126.89
2018-12-17T04:39:07.500Z,97129.79
2018-12-17T04:41:49.072Z,97135.70
2018-12-17T04:44:24.628Z,97132.30
2018-12-17T04:47:06.109Z,97139.35
2018-12-17T04:49:39.171Z,97141.73
2018-12-17T04:52:21.084Z,97146.25
2018-12-17T04:54:52.179Z,97154.61
2018-12-17T04:57:34.747Z,97155.52
2018-12-17T05:00:08.969Z,97154.98
2018-12-17T05:02:50.124Z,97160.20
2018-12-17T05:05:31.932Z,97168.30
2018-12-17T05:08:13.879Z,97171.47
2018-12-17T05:10:46.256Z,97186.22
2018-12-17T05:13:29.103Z,97185.55
2018-12-17T05:16:10.872Z,97184.38
2018-12-17T05:18:51.903Z,97190.72
2018-12-17T05:21:33.616Z,97192.55
2018-12-17T05:24:05.858Z,97198.38
2018-12-17T05:26:47.984Z,97202.41
2018-12-17T05:29:23.583Z,97207.75
2018-12-17T05:31:56.352Z,97211.13
2018-12-17T05:34:29.272Z,97214.53
2018-12-17T05:37:16.275Z,97222.44
2018-12-17T05:39:49.672Z,97228.63
2018-12-17T05:42:31.221Z,97232.23
2018-12-17T05:45:19.190Z,97233.86
2018-12-17T05:48:00.978Z,97240.77
2018-12-17T05:50:37.069Z,97244.00
2018-12-17T05:53:19.065Z,97245.39
2018-12-17T05:56:03.107Z,97248.03
2018-12-17T05:58:45.011Z,97251.11
2018-12-17T06:01:32.467Z,97250.98
2018-12-17T06:04:14.384Z,97253.86
2018-12-17T06:06:56.339Z,97269.10
2018-12-17T06:09:31.771Z,97277.52
2018-12-17T06:12:12.968Z,97287.53
2018-12-17T06:14:45.983Z,97284.38
2018-12-17T06:17:27.951Z,97291.77
2018-12-17T06:20:09.991Z,97291.86
2018-12-17T06:22:51.791Z,97296.01
2018-12-17T06:25:34.435Z,97296.25
2018-12-17T06:28:09.471Z,97295.63
2018-12-17T06:30:43.244Z,97305.76
2018-12-17T06:33:24.899Z,97311.44
2018-12-17T06:36:07.203Z,97311.88
2018-12-17T06:38:49.015Z,97320.50
2018-12-17T06:44:30.654Z,97321.52
2018-12-17T06:47:12.978Z,97324.66
2018-12-17T06:49:46.023Z,97325.59
2018-12-17T06:52:27.967Z,97331.98
2018-12-17T06:55:09.828Z,97338.11
2018-12-17T06:57:51.588Z,97342.55
2018-12-17T07:00:25.187Z,97348.17
2018-12-17T07:03:06.997Z,97345.12
2018-12-17T07:05:42.467Z,97340.53
2018-12-17T07:08:25.147Z,97348.86
2018-12-17T07:11:00.521Z,97359.00
2018-12-17T07:13:41.759Z,97364.63
2018-12-17T07:16:23.755Z,97366.95
2018-12-17T07:18:57.083Z,97377.02
2018-12-17T07:21:39.418Z,97389.94
2018-12-17T07:24:21.174Z,97395.55
2018-12-17T07:27:03.064Z,97393.94
2018-12-17T07:29:36.304Z,97398.95
2018-12-17T07:32:11.722Z,97405.67
2018-12-17T07:34:47.127Z,97412.25
2018-12-17T07:37:28.536Z,97411.72
2018-12-17T07:40:01.560Z,97411.66
2018-12-17T07:42:43.327Z,97419.08
2018-12-17T07:45:26.231Z,97425.17
2018-12-17T07:48:08.119Z,97437.03
2018-12-17T07:50:41.267Z,97443.00
2018-12-17T07:53:23.207Z,97448.10
2018-12-17T07:56:05.104Z,97448.66
2018-12-17T07:58:46.875Z,97454.59
2018-12-17T08:01:22.406Z,97459.95
2018-12-17T08:03:55.084Z,97462.11
2018-12-17T08:06:28.308Z,97469.63
2018-12-17T08:09:01.588Z,97472.65
2018-12-17T08:11:43.598Z,97486.37
2018-12-17T08:14:25.556Z,97492.09
2018-12-17T08:17:07.527Z,97501.17
2018-12-17T08:19:40.773Z,97512.30
2018-12-17T08:22:23.059Z,97516.11
2018-12-17T08:24:53.679Z,97514.41
2018-12-17T08:27:36.809Z,97516.55
2018-12-17T08:30:08.626Z,97516.70
2018-12-17T08:32:49.673Z,97522.74
2018-12-17T08:35:31.641Z,97527.76
2018-12-17T08:38:02.795Z,97535.83
2018-12-17T08:40:35.843Z,97538.24
2018-12-17T08:43:18.016Z,97536.58
2018-12-17T08:45:59.967Z,97544.28
2018-12-17T08:48:41.928Z,97548.67
2018-12-17T08:51:13.038Z,97553.07
2018-12-17T08:53:54.958Z,97549.22
2018-12-17T08:56:36.644Z,97558.84
2018-12-17T08:59:09.763Z,97562.31
2018-12-17T09:01:51.521Z,97567.88
2018-12-17T09:04:33.315Z,97568.84
2018-12-17T09:07:15.045Z,97570.59
2018-12-17T09:09:48.114Z,97574.22
2018-12-17T09:12:19.340Z,97586.39
2018-12-17T09:15:01.336Z,97592.09
2018-12-17T09:17:43.077Z,97606.23
2018-12-17T09:20:16.299Z,97606.73
2018-12-17T09:22:58.278Z,97607.94
2018-12-17T09:25:33.907Z,97601.70
2018-12-17T09:28:15.180Z,97599.65
2018-12-17T09:30:48.423Z,97600.36
2018-12-17T09:33:30.166Z,97607.03
2018-12-17T09:36:17.079Z,97609.67
2018-12-17T09:38:50.116Z,97611.04
2018-12-17T09:41:31.429Z,97614.53
2018-12-17T09:44:14.309Z,97618.22
2018-12-17T09:46:56.343Z,97626.14
2018-12-17T09:49:29.603Z,97626.02
2018-12-17T09:52:11.658Z,97621.56
2018-12-17T09:57:25.622Z,97621.67
2018-12-17T09:59:58.751Z,97617.73
2018-12-17T10:02:40.724Z,97623.37
2018-12-17T10:05:22.605Z,97626.55
2018-12-17T10:08:03.807Z,97635.64
2018-12-17T10:10:36.915Z,97635.03
2018-12-17T10:13:15.897Z,97644.22
2018-12-17T10:15:57.132Z,97637.92
2018-12-17T10:18:39.064Z,97631.64
2018-12-17T10:21:18.333Z,97641.27
2018-12-17T10:23:51.232Z,97641.31
2018-12-17T10:26:33.116Z,97648.68
2018-12-17T10:29:06.076Z,97641.48
2018-12-17T10:31:47.916Z,97649.78
2018-12-17T10:34:29.735Z,97643.71
2018-12-17T10:37:05.357Z,97644.61
2018-12-17T10:39:38.200Z,97641.28
2018-12-17T10:42:09.239Z,97636.94
2018-12-17T10:44:51.063Z,97640.69
2018-12-17T10:47:32.319Z,97648.62
2018-12-17T10:50:03.767Z,97647.89
2018-12-17T10:52:38.829Z,97648.11
2018-12-17T10:55:20.156Z,97644.89
2018-12-17T10:58:02.059Z,97643.87
2018-12-17T11:00:40.529Z,97647.49
2018-12-17T11:03:27.064Z,97647.30
2018-12-17T11:06:08.645Z,97642.95
2018-12-17T11:08:50.630Z,97634.60
2018-12-17T11:11:25.512Z,97634.05
2018-12-17T11:14:08.406Z,97625.26
2018-12-17T11:16:49.897Z,97624.63
2018-12-17T11:19:23.051Z,97618.17
2018-12-17T11:21:55.513Z,97619.25
2018-12-17T11:24:26.467Z,97628.06
2018-12-17T11:27:01.967Z,97624.13
2018-12-17T11:29:34.611Z,97614.80
2018-12-17T11:32:12.204Z,97622.43
2018-12-17T11:34:53.784Z,97621.20
2018-12-17T11:37:35.669Z,97623.91
2018-12-17T11:40:11.199Z,97625.79
2018-12-17T11:42:52.640Z,97623.27
2018-12-17T11:45:33.807Z,97627.59
2018-12-17T11:48:04.907Z,97626.16
2018-12-17T11:50:39.153Z,97626.15
2018-12-17T11:53:20.952Z,97625.63
2018-12-17T12:01:05.058Z,97634.24
2018-12-17T12:03:46.656Z,97632.21
2018-12-17T12:06:17.930Z,97635.81
2018-12-17T12:08:50.968Z,97628.78
2018-12-17T12:11:32.897Z,97628.42
2018-12-17T12:14:14.760Z,97626.92
2018-12-17T12:16:56.817Z,97634.50
2018-12-17T12:19:29.920Z,97630.55
2018-12-17T12:22:12.096Z,97635.76
2018-12-17T12:24:53.656Z,97625.32
2018-12-17T12:27:29.552Z,97626.33
2018-12-17T12:30:02.744Z,97633.17
2018-12-17T12:32:34.132Z,97632.89
2018-12-17T12:35:16.044Z,97637.94
2018-12-17T12:37:57.868Z,97642.94
2018-12-17T12:40:31.011Z,97637.25
2018-12-17T12:43:12.736Z,97639.62
2018-12-17T12:45:54.741Z,97639.25
2018-12-17T12:48:36.832Z,97636.19
2018-12-17T12:51:18.827Z,97634.48
2018-12-17T12:54:00.845Z,97649.56
2018-12-17T12:56:42.740Z,97640.30
2018-12-17T12:59:18.282Z,97653.06
2018-12-17T13:01:59.698Z,97653.70
2018-12-17T13:04:41.651Z,97657.76
2018-12-17T13:07:23.467Z,97661.06
2018-12-17T13:09:55.788Z,97667.70
2018-12-17T13:12:37.772Z,97664.34
2018-12-17T13:15:19.784Z,97675.87
2018-12-17T13:18:00.892Z,97672.91
2018-12-17T13:20:34.035Z,97674.98
2018-12-17T13:23:21.475Z,97682.03
2018-12-17T13:26:03.270Z,97683.85
2018-12-17T13:28:40.725Z,97680.39
2018-12-17T13:31:22.061Z,97675.44
2018-12-17T13:33:57.511Z,97673.92
2018-12-17T13:36:39.112Z,97676.55
2018-12-17T13:39:12.454Z,97681.77
2018-12-17T13:41:54.620Z,97683.44
2018-12-17T13:44:36.451Z,97682.52
2018-12-17T13:47:17.639Z,97689.20
2018-12-17T13:49:50.699Z,97689.03
2018-12-17T13:52:36.891Z,97702.09
2018-12-17T13:55:18.688Z,97714.23
2018-12-17T13:58:00.632Z,97719.95
2018-12-17T14:00:32.991Z,97719.61
2018-12-17T14:03:16.871Z,97726.39
2018-12-17T14:05:58.840Z,97726.04
2018-12-17T14:08:30.127Z,97731.72
2018-12-17T14:11:04.919Z,97735.25
2018-12-17T14:13:35.499Z,97744.17
2018-12-17T14:16:17.448Z,97740.71
2018-12-17T14:18:58.130Z,97746.89
2018-12-17T14:21:44.434Z,97755.06
2018-12-17T14:24:26.260Z,97758.44
2018-12-17T14:27:08.000Z,97757.88
2018-12-17T14:29:49.868Z,97762.47
2018-12-17T14:32:30.920Z,97764.95
2018-12-17T14:35:06.559Z,97771.59
2018-12-17T14:37:53.027Z,97770.23
2018-12-17T14:40:25.955Z,97771.14
2018-12-17T14:43:07.699Z,97777.22
2018-12-17T14:45:42.412Z,97786.69
2018-12-17T14:48:23.962Z,97788.17
2018-12-17T14:50:56.927Z,97795.16
2018-12-17T14:53:38.824Z,97791.26
2018-12-17T14:56:20.864Z,97798.09
2018-12-17T14:58:53.915Z,97793.44
2018-12-17T15:01:24.951Z,97805.09
2018-12-17T15:04:06.985Z,97810.53
2018-12-17T15:06:48.687Z,97812.34
2018-12-17T15:09:21.131Z,97814.31
2018-12-17T15:12:03.117Z,97821.15
2018-12-17T15:14:44.243Z,97829.33
2018-12-17T15:17:26.157Z,97834.98
2018-12-17T15:20:08.402Z,97846.98
2018-12-17T15:22:50.179Z,97851.09
2018-12-17T15:25:31.992Z,97860.20
2018-12-17T15:28:14.036Z,97862.73
2018-12-17T15:30:47.331Z,97870.53
2018-12-17T15:33:29.275Z,97880.95
2018-12-17T15:36:10.992Z,97887.79
2018-12-17T15:38:52.962Z,97895.19
2018-12-17T15:41:45.428Z,97900.64
2018-12-17T15:44:26.844Z,97905.62
2018-12-17T15:47:04.467Z,97901.27
2018-12-17T15:49:36.941Z,97909.92
2018-12-17T15:52:08.051Z,97910.48
2018-12-17T15:54:49.953Z,97914.02
2018-12-17T15:57:31.148Z,97913.92
2018-12-17T16:00:04.951Z,97911.55
2018-12-17T16:02:46.120Z,97920.69
2018-12-17T16:05:17.484Z,97917.75
2018-12-17T16:07:59.108Z,97918.77
2018-12-17T16:10:32.255Z,97922.73
2018-12-17T16:13:14.111Z,97921.05
2018-12-17T16:15:55.807Z,97923.48
2018-12-17T16:18:43.676Z,97935.14
2018-12-17T16:21:25.492Z,97937.25
2018-12-17T16:23:55.983Z,97933.88
2018-12-17T16:26:38.043Z,97930.46
2018-12-17T16:29:11.224Z,97931.98
2018-12-17T16:31:57.273Z,97924.00
2018-12-17T16:34:37.267Z,97924.26
2018-12-17T16:37:19.293Z,97928.02
2018-12-17T16:39:52.423Z,97928.09
2018-12-17T16:42:34.579Z,97930.69
2018-12-17T16:45:15.747Z,97930.54
2018-12-17T16:47:46.889Z,97942.54
2018-12-17T16:50:33.116Z,97949.66
2018-12-17T16:53:15.140Z,97957.76
2018-12-17T16:55:57.024Z,97953.61
2018-12-17T16:58:28.054Z,97960.96
2018-12-17T17:01:03.385Z,97963.53
2018-12-17T17:03:45.543Z,97972.36
2018-12-17T17:06:27.541Z,97975.68
2018-12-17T17:09:01.232Z,97970.34
2018-12-17T17:11:42.943Z,97976.45
2018-12-17T17:14:24.775Z,97986.68
2018-12-17T17:17:06.160Z,97995.75
2018-12-17T17:19:39.175Z,97994.30
2018-12-17T17:22:20.841Z,97995.14
2018-12-17T17:24:52.425Z,98003.60
2018-12-17T17:27:23.405Z,98000.35
2018-12-17T17:29:59.325Z,98002.49
2018-12-17T17:32:41.063Z,98008.48
2018-12-17T17:35:23.305Z,98004.73
2018-12-17T17:38:04.938Z,98007.02
2018-12-17T17:40:38.554Z,98004.30
2018-12-17T17:43:21.233Z,98016.61
2018-12-17T17:46:02.989Z,98021.48
2018-12-17T17:48:44.734Z,98021.23
2018-12-17T17:51:33.195Z,98028.47
2018-12-17T17:54:04.023Z,98037.32
2018-12-17T17:56:35.246Z,98028.63
2018-12-17T17:59:07.648Z,98030.19
2018-12-17T18:01:49.436Z,98038.36
2018-12-17T18:04:31.356Z,98040.55
2018-12-17T18:07:14.164Z,98050.09
2018-12-17T18:09:47.376Z,98051.59
2018-12-17T18:12:29.437Z,98052.06
2018-12-17T18:15:11.456Z,98054.26
2018-12-17T18:17:46.198Z,98056.08
2018-12-17T18:20:18.894Z,98062.63
2018-12-17T18:22:54.459Z,98070.59
2018-12-17T18:25:44.396Z,98072.53
2018-12-17T18:28:25.911Z,98084.67
2018-12-17T18:30:57.035Z,98072.56
2018-12-17T18:33:38.107Z,98071.73
2018-12-17T18:36:20.000Z,98072.27
2018-12-17T18:38:53.383Z,98078.06
2018-12-17T18:41:35.534Z,98082.91
2018-12-17T18:44:17.022Z,98080.99
2018-12-17T18:46:49.351Z,98076.83
2018-12-17T18:49:22.626Z,98084.28
2018-12-17T18:52:08.504Z,98082.57
2018-12-17T18:54:51.489Z,98079.48
2018-12-17T18:57:33.524Z,98086.16
2018-12-17T19:00:10.574Z,98092.85
2018-12-17T19:02:52.220Z,98100.14
2018-12-17T19:05:27.703Z,98104.19
2018-12-17T19:08:09.398Z,98107.74
2018-12-17T19:10:51.540Z,98111.41
2018-12-17T19:13:32.776Z,98110.95
2018-12-17T19:16:14.849Z,98115.75
2018-12-17T19:18:57.075Z,98119.72
2018-12-17T19:21:32.709Z,98120.20
2018-12-17T19:24:14.043Z,98125.80
2018-12-17T19:26:45.312Z,98131.50
2018-12-17T19:29:22.760Z,98130.29
2018-12-17T19:32:01.277Z,98116.35
2018-12-17T19:34:42.970Z,98122.01
2018-12-17T19:37:23.575Z,98123.10
2018-12-17T19:39:57.315Z,98125.83
2018-12-17T19:42:28.567Z,98132.30
2018-12-17T19:45:01.492Z,98132.00
2018-12-17T19:47:43.269Z,98129.12
2018-12-17T19:50:19.904Z,98130.71
2018-12-17T19:52:54.935Z,98141.52
2018-12-17T19:55:30.162Z,98138.80
2018-12-17T19:58:12.137Z,98145.77
2018-12-17T20:00:44.473Z,98142.05
2018-12-17T20:03:26.339Z,98150.45
2018-12-17T20:06:08.414Z,98146.80
2018-12-17T20:08:51.709Z,98145.02
2018-12-17T20:11:34.835Z,98146.37
2018-12-17T20:14:16.015Z,98146.22
2018-12-17T20:16:47.284Z,98143.50
2018-12-17T20:19:21.869Z,98141.87
2018-12-17T20:21:59.340Z,98144.00
2018-12-17T20:24:40.747Z,98140.78
2018-12-17T20:27:22.698Z,98146.12
2018-12-17T20:29:55.998Z,98133.64
2018-12-17T20:32:38.894Z,98136.53
2018-12-17T20:35:21.039Z,98138.15
2018-12-17T20:38:07.471Z,98139.64
2018-12-17T20:40:45.619Z,98149.03
2018-12-17T20:43:23.708Z,98147.75
2018-12-17T20:46:06.771Z,98150.94
2018-12-17T20:48:54.822Z,98152.29
2018-12-17T20:51:36.476Z,98158.56
2018-12-17T20:54:19.620Z,98158.02
2018-12-17T20:57:03.199Z,98160.89
2018-12-17T20:59:42.369Z,98163.95
2018-12-17T21:02:26.655Z,98161.09
2018-12-17T21:04:59.910Z,98164.00
2018-12-17T21:10:11.422Z,98164.16
2018-12-17T21:12:52.668Z,98165.77
2018-12-17T21:15:29.233Z,98167.87
2018-12-17T21:18:12.901Z,98165.75
2018-12-17T21:20:47.632Z,98164.97
2018-12-17T21:23:29.806Z,98159.94
2018-12-17T21:26:11.568Z,98167.06
2018-12-17T21:28:54.108Z,98164.53
2018-12-17T21:31:31.159Z,98169.19
2018-12-17T21:34:08.721Z,98169.91
2018-12-17T21:36:50.674Z,98173.06
2018-12-17T21:39:28.353Z,98176.62
2018-12-17T21:42:13.364Z,98176.98
2018-12-17T21:48:08.581Z,98188.03
2018-12-17T21:50:44.052Z,98183.20
2018-12-17T21:53:25.970Z,98185.44
2018-12-17T21:56:08.493Z,98183.06
2018-12-17T21:58:53.141Z,98186.13
2018-12-17T22:01:35.044Z,98177.42
2018-12-17T22:04:17.099Z,98175.73
2018-12-17T22:07:03.101Z,98176.38
2018-12-17T22:09:41.473Z,98179.44
2018-12-17T22:12:14.483Z,98185.20
2018-12-17T22:14:49.292Z,98192.95
2018-12-17T22:17:30.457Z,98186.36
2018-12-17T22:20:02.844Z,98190.12
2018-12-17T22:22:46.285Z,98187.22
2018-12-17T22:25:30.639Z,98190.70
2018-12-17T22:28:12.203Z,98182.21
2018-12-17T22:30:52.738Z,98184.50
2018-12-17T22:33:28.700Z,98183.91
2018-12-17T22:36:11.327Z,98190.43
2018-12-17T22:38:54.407Z,98185.61
2018-12-17T22:41:37.069Z,98184.70
2018-12-17T22:44:12.682Z,98179.88
2018-12-17T22:46:54.052Z,98186.72
2018-12-17T22:49:26.552Z,98189.80
2018-12-17T22:52:08.718Z,98188.86
2018-12-17T22:54:47.404Z,98187.30
2018-12-17T22:57:19.126Z,98186.36
2018-12-17T22:59:56.262Z,98186.54
2018-12-17T23:02:34.131Z,98183.66
2018-12-17T23:05:16.146Z,98180.59
2018-12-17T23:08:02.875Z,98180.11
2018-12-17T23:10:52.743Z,98181.55
2018-12-17T23:13:39.988Z,98181.72
2018-12-17T23:16:26.612Z,98175.59
2018-12-17T23:18:57.832Z,98172.85
2018-12-17T23:21:40.035Z,98177.70
2018-12-17T23:24:25.688Z,98170.59
2018-12-17T23:27:19.259Z,98175.42
2018-12-17T23:29:52.271Z,98170.41
2018-12-17T23:32:39.376Z,98168.93
2018-12-17T23:35:21.156Z,98169.72
2018-12-17T23:38:04.284Z,98167.32
2018-12-17T23:40:39.276Z,98168.27
2018-12-17T23:43:10.609Z,98157.94
2018-12-17T23:45:54.355Z,98154.38
2018-12-17T23:48:29.875Z,98151.17
2018-12-17T23:51:11.240Z,98152.45
2018-12-17T23:53:53.332Z,98148.28
2018-12-17T23:56:35.033Z,98148.93
2018-12-17T23:59:11.630Z,98149.44
